deformed-offering

Nearby METAR Reports

 

KSJC - San Jose, California, USA
Distance from station: NE 9mi, 14km
Updated: Thu, 07-Jul-2022 5:53am PDT
Overcast
Overcast
 Wind from N
Wind: N 5 mph , 7 km/h
Temperature: 63°F , 17°C
Dew Point: 54°F , 12°C
Humidity: 73%
Barometer: 30.02 inHg , 1016.6 hPa
Clouds: Overcast
Visibility: 10 miles , 16 km
Cloud details: Overcast 1800 ft
2022/07/07 12:53 KSJC 071253Z 36004KT 10SM OVC018 17/12 A3002 RMK AO2 SLP163 T01670122
KPAO - Palo Alto, California, USA
Distance from station: NNW 14mi, 23km
Updated: Wed, 06-Jul-2022 8:47pm PDT
NOT Current
Partly Cloudy
Partly Cloudy
 Wind from WNW
Wind: WNW 12 mph , 19 km/h
Temperature: 64°F , 18°C
Dew Point: 54°F , 12°C
Humidity: 68%
Barometer: 29.98 inHg , 1015.2 hPa
Clouds: Partly Cloudy
Visibility: 10 miles , 16 km
Cloud details: Partly Cloudy 2000 ft
2022/07/07 03:47 KPAO 070347Z 30010KT 10SM SCT020 18/12 A2998 RMK LAST
 
KSQL - San Carlos Airpo, California, USA
Distance from station: NW 21mi, 34km
Updated: Thu, 07-Jul-2022 6:15am PDT
Overcast
Overcast
 Wind from calm
Wind: Calm
Temperature: 59°F , 15°C
Dew Point: 54°F , 12°C
Humidity: 82%
Barometer: 30.04 inHg , 1017.3 hPa
Clouds: Overcast
Visibility: 10 miles , 16 km
Cloud details: Overcast 1300 ft
2022/07/07 13:15 KSQL 071315Z AUTO 00000KT 10SM OVC013 15/12 A3004 RMK AO2
KWVI - Watsonville, California, USA
Distance from station: SSE 27mi, 44km
Updated: Thu, 07-Jul-2022 5:53am PDT
Overcast
Overcast
 Wind from calm
Wind: Calm
Temperature: 57°F , 14°C
Dew Point: 54°F , 12°C
Humidity: 88%
Barometer: 30.02 inHg , 1016.6 hPa
Clouds: Overcast
Visibility: 10 miles , 16 km
Cloud details: Overcast 1000 ft
2022/07/07 12:53 KWVI 071253Z AUTO 00000KT 10SM OVC010 14/12 A3002 RMK AO2 SLP166 T01440122
 
KHWD - Hayward, California, USA
Distance from station: N 28mi, 44km
Updated: Thu, 07-Jul-2022 5:54am PDT
Overcast
Overcast
 Wind from WSW
Wind: WSW 6 mph , 9 km/h
Temperature: 59°F , 15°C
Dew Point: 54°F , 12°C
Humidity: 82%
Barometer: 30.02 inHg , 1016.6 hPa
Clouds: Overcast
Visibility: 10 miles , 16 km
Cloud details: Overcast 1000 ft
2022/07/07 12:54 KHWD 071254Z AUTO 24005KT 10SM OVC010 15/12 A3002 RMK AO2 SLP174 T01500122
KSFO - San Francisco, California, USA
Distance from station: NW 30mi, 49km
Updated: Thu, 07-Jul-2022 5:56am PDT
Overcast
Overcast
 Wind from WNW
Wind: WNW 10 mph , 17 km/h
Temperature: 57°F , 14°C
Dew Point: 54°F , 12°C
Humidity: 88%
Barometer: 30.03 inHg , 1016.9 hPa
Clouds: Overcast
Visibility: 10 miles , 16 km
Cloud details: Few Clouds 600 ft
Mostly Cloudy 800 ft
Overcast 1000 ft
2022/07/07 12:56 KSFO 071256Z 30009KT 10SM FEW006 BKN008 OVC010 14/12 A3003 RMK AO2 SLP167 T01390117
 
KHAF - Half Moon Bay, California, USA
Distance from station: WNW 31mi, 50km
Updated: Thu, 07-Jul-2022 6:15am PDT
Mist, Overcast
Mist, Overcast
 Wind from NNW
Wind: NNW 7 mph , 11 km/h
Temperature: 55°F , 13°C
Dew Point: 55°F , 13°C
Humidity: 100%
Barometer: 30.04 inHg , 1017.3 hPa
Summary: Mist
Clouds: Overcast
Visibility: 1 3/4 miles , 2.8 km
Cloud details: Overcast 600 ft
2022/07/07 13:15 KHAF 071315Z AUTO 33006KT 1 3/4SM BR OVC006 13/13 A3004 RMK AO2
KLVK - Livermore, California, USA
Distance from station: NNE 31mi, 51km
Updated: Thu, 07-Jul-2022 5:53am PDT
Overcast
Overcast
 Wind from WNW
Wind: WNW 8 mph , 13 km/h
Temperature: 59°F , 15°C
Dew Point: 54°F , 12°C
Humidity: 82%
Barometer: 30.01 inHg , 1016.3 hPa
Clouds: Overcast
Visibility: 10 miles , 16 km
Cloud details: Overcast 1300 ft
2022/07/07 12:53 KLVK 071253Z AUTO 29007KT 10SM OVC013 15/12 A3001 RMK AO2 SLP160 T01500122
 
KOAK - Oakland, California, USA
Distance from station: NNW 33mi, 53km
Updated: Thu, 07-Jul-2022 5:53am PDT
Overcast
Overcast
 Wind from W
Wind: W 13 mph , 20 km/h
Temperature: 57°F , 14°C
Dew Point: 54°F , 12°C
Humidity: 88%
Barometer: 30.03 inHg , 1016.9 hPa
Clouds: Overcast
Visibility: 10 miles , 16 km
Cloud details: Few Clouds 600 ft
Mostly Cloudy 900 ft
Overcast 1200 ft
2022/07/07 12:53 KOAK 071253Z 27011KT 10SM FEW006 BKN009 OVC012 14/12 A3003 RMK AO2 SLP167 T01440117
KCVH - Hollister Muni, California, USA
Distance from station: SE 42mi, 68km
Updated: Thu, 07-Jul-2022 6:15am PDT
Overcast
Overcast
 Wind from calm
Wind: Calm
Temperature: 61°F , 16°C
Dew Point: 54°F , 12°C
Humidity: 77%
Barometer: 30.03 inHg , 1016.9 hPa
Clouds: Overcast
Visibility: 10 miles , 16 km
Cloud details: Overcast 1700 ft
2022/07/07 13:15 KCVH 071315Z AUTO 00000KT 10SM OVC017 16/12 A3003 RMK A01
 
KSNS - Salinas, California, USA
Distance from station: SSE 48mi, 77km
Updated: Thu, 07-Jul-2022 6:12am PDT
Overcast
Overcast
 Wind from W
Wind: W 8 mph , 13 km/h
Temperature: 63°F , 17°C
Dew Point: 55°F , 13°C
Humidity: 77%
Barometer: 30.01 inHg , 1016.3 hPa
Clouds: Overcast
Visibility: 10 miles , 16 km
Cloud details: Overcast 1100 ft
2022/07/07 13:12 KSNS 071312Z 26007KT 10SM OVC011 17/13 A3001 RMK AO2 T01670128
KMRY - Monterey, California, USA
Distance from station: SSE 49mi, 78km
Updated: Thu, 07-Jul-2022 5:54am PDT
Overcast
Overcast
 Wind from varies
Wind: varies 3 mph , 6 km/h
Temperature: 61°F , 16°C
Dew Point: 55°F , 13°C
Humidity: 83%
Barometer: 30.02 inHg , 1016.6 hPa
Clouds: Overcast
Visibility: 10 miles , 16 km
Cloud details: Overcast 700 ft
2022/07/07 12:54 KMRY 071254Z VRB03KT 10SM OVC007 16/13 A3002 RMK AO2 SLP178 T01610128
 
KCCR - Concord, California, USA
Distance from station: N 50mi, 81km
Updated: Thu, 07-Jul-2022 5:53am PDT
Clear
Clear
 Wind from SSW
Wind: SSW 13 mph , 20 km/h
Temperature: 57°F , 14°C
Dew Point: 54°F , 12°C
Humidity: 88%
Barometer: 30.00 inHg , 1015.9 hPa
Clouds: Clear
Visibility: 10 miles , 16 km
2022/07/07 12:53 KCCR 071253Z AUTO 20011KT 10SM CLR 14/12 A3000 RMK AO2 SLP145 T01440117
deformed-offering